Darstellungsparameter: Aktuell verwendete Einstellungen:
Skalierung der Graphiken ... ?
xyx+y,   Skalierungsfaktor:      Skalierung: Modus: x, Faktor: 1
Darstellungszeitraum ... ?
Vom - - bis: - -   Zeitraum: 19.08.2019 - 20.08.2019
Min/Max/Avg-Anzeige ... ?
Zeige MMA aktuell
Zeige MMA Monat
Zeige MMA alles
Zeige --A aktuell
Zeige --A Monat
Zeige --A alles
Keine MMA-Anzeige
MMA:
Keine MMA-Graphiken
MMA-Basis: 19.08.2019 - 20.08.2019
Quicknavigation für Darstellung... ?
Tage:      1T, 2T, 3T, 5T -1T -2T -3T -5T +1T +2T +3T +5T
Wochen: 1W, 2W, 3W -1W -2W -3W +1W +2W +3W
Monate: 1M, 3M, 6M -1M -3M -6M +1M +3M +6M
Jahre:    1J, 3J, 5J, 10J -1J -3J -5J -10J +1J +3J +5J +10J
Nutze für die Darstellung ... ?
Originaldaten oder Mittelwerte auf ...
Stundenbasis Tagesbasis Wochenbasis
Monatsbasis Jahresbasis      Datenbasis: Original-Daten
Darstellen als:
Statistik (Auto) Statistik J:M      Darstellung:
Zur Graphik,    zurück zur Übersicht aller Sensoren.
 
Tabellarische Datenbersicht: ?
 
Sensor: Nr:Datum:Temp:Feuchte:Taupunkt:
Aussen-T/F 1 19-08-2019 00:00:00 16.2 C 96 % 15.56 C
2 19-08-2019 00:05:00 16.2 C 96 % 15.56 C
3 19-08-2019 00:10:00 16.2 C 96 % 15.56 C
4 19-08-2019 00:15:00 16.2 C 96 % 15.56 C
5 19-08-2019 00:20:00 16.2 C 96 % 15.56 C
6 19-08-2019 00:25:00 16.1 C 96 % 15.46 C
7 19-08-2019 00:30:00 16.1 C 96 % 15.46 C
8 19-08-2019 00:35:00 16.1 C 96 % 15.46 C
9 19-08-2019 00:40:00 16.1 C 96 % 15.46 C
10 19-08-2019 00:45:00 16.1 C 96 % 15.46 C
11 19-08-2019 00:50:00 16.1 C 96 % 15.46 C
12 19-08-2019 00:55:00 16.1 C 96 % 15.46 C
13 19-08-2019 01:00:00 16.2 C 96 % 15.56 C
14 19-08-2019 01:05:00 16.2 C 96 % 15.56 C
15 19-08-2019 01:10:00 16.1 C 96 % 15.46 C
16 19-08-2019 01:15:00 16.1 C 96 % 15.46 C
17 19-08-2019 01:20:00 16.1 C 96 % 15.46 C
18 19-08-2019 01:25:00 16.1 C 96 % 15.46 C
19 19-08-2019 01:30:00 16.1 C 96 % 15.46 C
20 19-08-2019 01:35:00 16.1 C 96 % 15.46 C
21 19-08-2019 01:40:00 16.1 C 96 % 15.46 C
22 19-08-2019 01:45:00 16.1 C 96 % 15.46 C
23 19-08-2019 01:50:00 16.1 C 96 % 15.46 C
24 19-08-2019 01:55:00 16 C 96 % 15.36 C
25 19-08-2019 02:00:00 16 C 96 % 15.36 C
Sensor: Nr:Datum:Temp:Feuchte:Taupunkt:
Aussen-T/F 26 19-08-2019 02:05:00 16 C 96 % 15.36 C
27 19-08-2019 02:10:00 16 C 96 % 15.36 C
28 19-08-2019 02:15:00 15.9 C 96 % 15.26 C
29 19-08-2019 02:20:00 15.9 C 96 % 15.26 C
30 19-08-2019 02:25:00 15.8 C 96 % 15.16 C
31 19-08-2019 02:30:00 15.8 C 96 % 15.16 C
32 19-08-2019 02:35:00 15.7 C 96 % 15.06 C
33 19-08-2019 02:40:00 15.7 C 96 % 15.06 C
34 19-08-2019 02:45:00 15.7 C 96 % 15.06 C
35 19-08-2019 02:50:00 15.7 C 96 % 15.06 C
36 19-08-2019 02:55:00 15.6 C 96 % 14.96 C
37 19-08-2019 03:00:00 15.7 C 96 % 15.06 C
38 19-08-2019 03:05:00 15.6 C 97 % 15.13 C
39 19-08-2019 03:10:00 15.6 C 96 % 14.96 C
40 19-08-2019 03:15:00 15.6 C 96 % 14.96 C
41 19-08-2019 03:20:00 15.5 C 96 % 14.86 C
42 19-08-2019 03:25:00 15.4 C 96 % 14.77 C
43 19-08-2019 03:30:00 15.3 C 96 % 14.67 C
44 19-08-2019 03:35:00 15.3 C 96 % 14.67 C
45 19-08-2019 03:40:00 15.2 C 96 % 14.57 C
46 19-08-2019 03:45:00 15.2 C 96 % 14.57 C
47 19-08-2019 03:50:00 15.1 C 96 % 14.47 C
48 19-08-2019 03:55:00 15.1 C 96 % 14.47 C
49 19-08-2019 04:00:00 14.9 C 96 % 14.27 C
50 19-08-2019 04:05:00 14.9 C 96 % 14.27 C
Sensor: Nr:Datum:Temp:Feuchte:Taupunkt:
Aussen-T/F 51 19-08-2019 04:10:00 14.8 C 96 % 14.17 C
52 19-08-2019 04:15:00 14.8 C 96 % 14.17 C
53 19-08-2019 04:20:00 14.8 C 96 % 14.17 C
54 19-08-2019 04:25:00 14.8 C 96 % 14.17 C
55 19-08-2019 04:30:00 14.7 C 96 % 14.07 C
56 19-08-2019 04:35:00 14.7 C 96 % 14.07 C
57 19-08-2019 04:40:00 14.7 C 96 % 14.07 C
58 19-08-2019 04:45:00 14.7 C 96 % 14.07 C
59 19-08-2019 04:50:00 14.8 C 97 % 14.33 C
60 19-08-2019 04:55:00 14.8 C 97 % 14.33 C
61 19-08-2019 05:00:00 14.9 C 97 % 14.43 C
62 19-08-2019 05:05:00 15 C 97 % 14.53 C
63 19-08-2019 05:10:00 15.1 C 97 % 14.63 C
64 19-08-2019 05:15:00 15.1 C 97 % 14.63 C
65 19-08-2019 05:20:00 15.2 C 97 % 14.73 C
66 19-08-2019 05:25:00 15.2 C 97 % 14.73 C
67 19-08-2019 05:30:00 15.2 C 97 % 14.73 C
68 19-08-2019 05:35:00 15.2 C 97 % 14.73 C
69 19-08-2019 05:40:00 15.2 C 97 % 14.73 C
70 19-08-2019 05:45:00 15.2 C 97 % 14.73 C
71 19-08-2019 05:50:00 15.1 C 97 % 14.63 C
72 19-08-2019 05:55:00 15.1 C 97 % 14.63 C
73 19-08-2019 06:00:00 14.9 C 97 % 14.43 C
74 19-08-2019 06:05:00 14.9 C 97 % 14.43 C
75 19-08-2019 06:10:00 14.8 C 96 % 14.17 C
Sensor: Nr:Datum:Temp:Feuchte:Taupunkt:
Aussen-T/F 76 19-08-2019 06:15:00 14.7 C 96 % 14.07 C
77 19-08-2019 06:20:00 14.6 C 97 % 14.13 C
78 19-08-2019 06:25:00 14.6 C 97 % 14.13 C
79 19-08-2019 06:30:00 14.6 C 97 % 14.13 C
80 19-08-2019 06:35:00 14.5 C 97 % 14.03 C
81 19-08-2019 06:40:00 14.4 C 97 % 13.93 C
82 19-08-2019 06:45:00 14.4 C 97 % 13.93 C
83 19-08-2019 06:50:00 14.5 C 97 % 14.03 C
84 19-08-2019 06:55:00 14.5 C 97 % 14.03 C
85 19-08-2019 07:00:00 14.5 C 97 % 14.03 C
86 19-08-2019 07:05:00 14.6 C 97 % 14.13 C
87 19-08-2019 07:10:00 14.6 C 97 % 14.13 C
88 19-08-2019 07:15:00 14.6 C 97 % 14.13 C
89 19-08-2019 07:20:00 14.7 C 97 % 14.23 C
90 19-08-2019 07:25:00 14.8 C 97 % 14.33 C
91 19-08-2019 07:30:00 15 C 97 % 14.53 C
92 19-08-2019 07:35:00 15.2 C 97 % 14.73 C
93 19-08-2019 07:40:00 15.3 C 98 % 14.99 C
94 19-08-2019 07:45:00 15.6 C 97 % 15.13 C
95 19-08-2019 07:50:00 15.7 C 97 % 15.23 C
96 19-08-2019 07:55:00 15.7 C 98 % 15.38 C
97 19-08-2019 08:00:00 15.7 C 97 % 15.23 C
98 19-08-2019 08:05:00 15.6 C 97 % 15.13 C
99 19-08-2019 08:10:00 15.6 C 97 % 15.13 C
100 19-08-2019 08:15:00 15.6 C 97 % 15.13 C
Sensor: Nr:Datum:Temp:Feuchte:Taupunkt:
Aussen-T/F 101 19-08-2019 08:20:00 15.6 C 97 % 15.13 C
102 19-08-2019 08:25:00 15.6 C 97 % 15.13 C
103 19-08-2019 08:30:00 15.7 C 97 % 15.23 C
104 19-08-2019 08:35:00 15.7 C 97 % 15.23 C
105 19-08-2019 08:40:00 15.7 C 97 % 15.23 C
106 19-08-2019 08:45:00 15.7 C 97 % 15.23 C
107 19-08-2019 08:50:00 15.7 C 97 % 15.23 C
108 19-08-2019 08:55:00 15.7 C 97 % 15.23 C
109 19-08-2019 09:00:00 15.8 C 97 % 15.32 C
110 19-08-2019 09:05:00 15.8 C 97 % 15.32 C
111 19-08-2019 09:10:00 15.8 C 97 % 15.32 C
112 19-08-2019 09:15:00 15.9 C 97 % 15.42 C
113 19-08-2019 09:20:00 16 C 97 % 15.52 C
114 19-08-2019 09:25:00 15.9 C 97 % 15.42 C
115 19-08-2019 09:30:00 15.9 C 97 % 15.42 C
116 19-08-2019 09:35:00 15.9 C 97 % 15.42 C
117 19-08-2019 09:40:00 15.9 C 96 % 15.26 C
118 19-08-2019 09:45:00 15.9 C 96 % 15.26 C
119 19-08-2019 09:50:00 15.9 C 96 % 15.26 C
120 19-08-2019 09:55:00 16 C 95 % 15.2 C
121 19-08-2019 10:00:00 16.1 C 95 % 15.3 C
122 19-08-2019 10:05:00 15.9 C 94 % 14.94 C
123 19-08-2019 10:10:00 15.9 C 94 % 14.94 C
124 19-08-2019 10:15:00 16.1 C 90 % 14.46 C
125 19-08-2019 10:20:00 16.3 C 88 % 14.31 C
Sensor: Nr:Datum:Temp:Feuchte:Taupunkt:
Aussen-T/F 126 19-08-2019 10:25:00 16.6 C 88 % 14.6 C
127 19-08-2019 10:30:00 16.8 C 88 % 14.8 C
128 19-08-2019 10:35:00 16.9 C 87 % 14.72 C
129 19-08-2019 10:40:00 17 C 83 % 14.09 C
130 19-08-2019 10:45:00 17.2 C 83 % 14.29 C
131 19-08-2019 10:50:00 17.3 C 81 % 14.01 C
132 19-08-2019 10:55:00 17.5 C 81 % 14.2 C
133 19-08-2019 11:00:00 17.8 C 80 % 14.31 C
134 19-08-2019 11:05:00 18 C 79 % 14.31 C
135 19-08-2019 11:10:00 18.2 C 80 % 14.69 C
136 19-08-2019 11:15:00 18.3 C 77 % 14.2 C
137 19-08-2019 11:20:00 18.5 C 76 % 14.19 C
138 19-08-2019 11:25:00 18.6 C 74 % 13.88 C
139 19-08-2019 11:30:00 18.7 C 75 % 14.18 C
140 19-08-2019 11:35:00 18.7 C 73 % 13.76 C
141 19-08-2019 11:40:00 18.8 C 72 % 13.65 C
142 19-08-2019 11:45:00 18.9 C 70 % 13.31 C
143 19-08-2019 11:50:00 19 C 71 % 13.63 C
144 19-08-2019 11:55:00 19.2 C 70 % 13.6 C
145 19-08-2019 12:00:00 19.3 C 70 % 13.69 C
146 19-08-2019 12:05:00 19.4 C 70 % 13.79 C
147 19-08-2019 12:10:00 19.8 C 67 % 13.5 C
148 19-08-2019 12:15:00 20 C 67 % 13.69 C
149 19-08-2019 12:20:00 20.2 C 65 % 13.41 C
150 19-08-2019 12:25:00 20.4 C 64 % 13.37 C
Sensor: Nr:Datum:Temp:Feuchte:Taupunkt:
Aussen-T/F 151 19-08-2019 12:30:00 20.6 C 63 % 13.31 C
152 19-08-2019 12:35:00 20.7 C 62 % 13.16 C
153 19-08-2019 12:40:00 20.6 C 63 % 13.31 C
154 19-08-2019 12:45:00 20.7 C 61 % 12.91 C
155 19-08-2019 12:50:00 20.8 C 62 % 13.26 C
156 19-08-2019 12:55:00 20.8 C 60 % 12.76 C
157 19-08-2019 13:00:00 20.8 C 61 % 13.01 C
158 19-08-2019 13:05:00 20.8 C 60 % 12.76 C
159 19-08-2019 13:10:00 20.9 C 61 % 13.1 C
160 19-08-2019 13:15:00 21.1 C 59 % 12.78 C
161 19-08-2019 13:20:00 21.3 C 57 % 12.44 C
162 19-08-2019 13:25:00 21.5 C 59 % 13.15 C
163 19-08-2019 13:30:00 21.6 C 57 % 12.72 C
164 19-08-2019 13:35:00 21.8 C 61 % 13.95 C
165 19-08-2019 13:40:00 22 C 56 % 12.82 C
166 19-08-2019 13:45:00 22.1 C 57 % 13.19 C
167 19-08-2019 13:50:00 22.1 C 56 % 12.92 C
168 19-08-2019 13:55:00 22.3 C 56 % 13.1 C
169 19-08-2019 14:00:00 22.4 C 55 % 12.92 C
170 19-08-2019 14:05:00 22.4 C 56 % 13.2 C
171 19-08-2019 14:10:00 22.6 C 54 % 12.83 C
172 19-08-2019 14:15:00 22.5 C 55 % 13.01 C
173 19-08-2019 14:20:00 22.5 C 55 % 13.01 C
174 19-08-2019 14:25:00 22.7 C 55 % 13.2 C
175 19-08-2019 14:30:00 22.8 C 52 % 12.43 C
Sensor: Nr:Datum:Temp:Feuchte:Taupunkt:
Aussen-T/F 176 19-08-2019 14:35:00 23.1 C 54 % 13.29 C
177 19-08-2019 14:40:00 23.2 C 52 % 12.8 C
178 19-08-2019 14:45:00 23.2 C 53 % 13.09 C
179 19-08-2019 14:50:00 23.1 C 51 % 12.42 C
180 19-08-2019 14:55:00 23 C 54 % 13.2 C
181 19-08-2019 15:00:00 23.2 C 52 % 12.8 C
182 19-08-2019 15:05:00 23.3 C 51 % 12.6 C
183 19-08-2019 15:10:00 23.4 C 50 % 12.39 C
184 19-08-2019 15:15:00 23.4 C 52 % 12.99 C
185 19-08-2019 15:20:00 23.4 C 50 % 12.39 C
186 19-08-2019 15:25:00 23.6 C 49 % 12.27 C
187 19-08-2019 15:30:00 23.6 C 49 % 12.27 C
188 19-08-2019 15:35:00 23.7 C 49 % 12.36 C
189 19-08-2019 15:40:00 23.8 C 53 % 13.65 C
190 19-08-2019 15:45:00 23.7 C 52 % 13.26 C
191 19-08-2019 15:50:00 23.4 C 51 % 12.69 C
192 19-08-2019 15:55:00 23.1 C 50 % 12.11 C
193 19-08-2019 16:00:00 22.8 C 57 % 13.84 C
194 19-08-2019 16:05:00 22.6 C 55 % 13.11 C
195 19-08-2019 16:10:00 22.4 C 54 % 12.64 C
196 19-08-2019 16:15:00 22.7 C 52 % 12.34 C
197 19-08-2019 16:20:00 23.2 C 51 % 12.51 C
198 19-08-2019 16:25:00 23.7 C 54 % 13.84 C
199 19-08-2019 16:30:00 24.3 C 51 % 13.52 C
200 19-08-2019 16:35:00 24.4 C 50 % 13.31 C
Sensor: Nr:Datum:Temp:Feuchte:Taupunkt:
Aussen-T/F 201 19-08-2019 16:40:00 24.7 C 46 % 12.31 C
202 19-08-2019 16:45:00 24.8 C 46 % 12.4 C
203 19-08-2019 16:50:00 24.9 C 46 % 12.49 C
204 19-08-2019 16:55:00 24.9 C 46 % 12.49 C
205 19-08-2019 17:00:00 24.9 C 48 % 13.14 C
206 19-08-2019 17:05:00 24.8 C 49 % 13.36 C
207 19-08-2019 17:10:00 24.7 C 45 % 11.97 C
208 19-08-2019 17:15:00 24.4 C 49 % 13 C
209 19-08-2019 17:20:00 24.6 C 44 % 11.54 C
210 19-08-2019 17:25:00 24.2 C 48 % 12.5 C
211 19-08-2019 17:30:00 23.8 C 47 % 11.82 C
212 19-08-2019 17:35:00 23.6 C 49 % 12.27 C
213 19-08-2019 17:40:00 23.4 C 49 % 12.08 C
214 19-08-2019 17:45:00 23.4 C 50 % 12.39 C
215 19-08-2019 17:50:00 23.3 C 54 % 13.47 C
216 19-08-2019 17:55:00 23.2 C 49 % 11.9 C
217 19-08-2019 18:00:00 23.2 C 50 % 12.21 C
218 19-08-2019 18:05:00 23.2 C 49 % 11.9 C
219 19-08-2019 18:10:00 23.3 C 49 % 11.99 C
220 19-08-2019 18:15:00 23.4 C 49 % 12.08 C
221 19-08-2019 18:20:00 23.6 C 49 % 12.27 C
222 19-08-2019 18:25:00 23.8 C 50 % 12.76 C
223 19-08-2019 18:30:00 23.9 C 47 % 11.91 C
224 19-08-2019 18:35:00 23.8 C 50 % 12.76 C
225 19-08-2019 18:40:00 23.6 C 50 % 12.57 C
Sensor: Nr:Datum:Temp:Feuchte:Taupunkt:
Aussen-T/F 226 19-08-2019 18:45:00 23.3 C 54 % 13.47 C
227 19-08-2019 18:50:00 23.4 C 60 % 15.19 C
228 19-08-2019 18:55:00 23.7 C 49 % 12.36 C
229 19-08-2019 19:00:00 24.1 C 52 % 13.63 C
230 19-08-2019 19:05:00 24.4 C 49 % 13 C
231 19-08-2019 19:10:00 24.4 C 49 % 13 C
232 19-08-2019 19:15:00 24 C 47 % 12 C
233 19-08-2019 19:20:00 23.6 C 54 % 13.75 C
234 19-08-2019 19:25:00 23.1 C 51 % 12.42 C
235 19-08-2019 19:30:00 22.7 C 54 % 12.92 C
236 19-08-2019 19:35:00 22.3 C 59 % 13.9 C
237 19-08-2019 19:40:00 22.1 C 63 % 14.73 C
238 19-08-2019 19:45:00 21.8 C 67 % 15.4 C
239 19-08-2019 19:50:00 21.6 C 66 % 14.98 C
240 19-08-2019 19:55:00 21.4 C 65 % 14.55 C
241 19-08-2019 20:00:00 21.2 C 67 % 14.83 C
242 19-08-2019 20:05:00 21 C 66 % 14.41 C
243 19-08-2019 20:10:00 20.8 C 66 % 14.22 C
244 19-08-2019 20:15:00 20.5 C 68 % 14.39 C
245 19-08-2019 20:20:00 20.2 C 70 % 14.56 C
246 19-08-2019 20:25:00 19.8 C 70 % 14.17 C
247 19-08-2019 20:30:00 19.4 C 69 % 13.57 C
248 19-08-2019 20:35:00 19.2 C 71 % 13.82 C
249 19-08-2019 20:40:00 18.9 C 71 % 13.53 C
250 19-08-2019 20:45:00 18.7 C 72 % 13.55 C
Sensor: Nr:Datum:Temp:Feuchte:Taupunkt:
Aussen-T/F 251 19-08-2019 20:50:00 18.6 C 73 % 13.67 C
252 19-08-2019 20:55:00 18.3 C 73 % 13.38 C
253 19-08-2019 21:00:00 18.1 C 73 % 13.19 C
254 19-08-2019 21:05:00 17.9 C 73 % 12.99 C
255 19-08-2019 21:10:00 17.7 C 73 % 12.8 C
256 19-08-2019 21:15:00 17.6 C 75 % 13.12 C
257 19-08-2019 21:20:00 17.4 C 75 % 12.93 C
258 19-08-2019 21:25:00 17.3 C 75 % 12.83 C
259 19-08-2019 21:30:00 17.2 C 74 % 12.53 C
260 19-08-2019 21:35:00 17.1 C 75 % 12.64 C
261 19-08-2019 21:40:00 17 C 76 % 12.74 C
262 19-08-2019 21:45:00 16.9 C 76 % 12.65 C
263 19-08-2019 21:50:00 16.8 C 76 % 12.55 C
264 19-08-2019 21:55:00 16.7 C 77 % 12.65 C
265 19-08-2019 22:00:00 16.6 C 77 % 12.55 C
266 19-08-2019 22:05:00 16.6 C 79 % 12.95 C
267 19-08-2019 22:10:00 16.6 C 79 % 12.95 C
268 19-08-2019 22:15:00 16.6 C 79 % 12.95 C
269 19-08-2019 22:20:00 16.6 C 81 % 13.33 C
270 19-08-2019 22:25:00 16.6 C 82 % 13.52 C
271 19-08-2019 22:30:00 16.6 C 81 % 13.33 C
272 19-08-2019 22:35:00 16.6 C 81 % 13.33 C
273 19-08-2019 22:40:00 16.5 C 81 % 13.23 C
274 19-08-2019 22:45:00 16.4 C 82 % 13.32 C
275 19-08-2019 22:50:00 16.3 C 81 % 13.04 C
Sensor: Nr:Datum:Temp:Feuchte:Taupunkt:
Aussen-T/F 276 19-08-2019 22:55:00 16.2 C 81 % 12.94 C
277 19-08-2019 23:00:00 16 C 81 % 12.74 C
278 19-08-2019 23:05:00 15.8 C 82 % 12.74 C
279 19-08-2019 23:10:00 15.7 C 82 % 12.64 C
280 19-08-2019 23:15:00 15.5 C 83 % 12.63 C
281 19-08-2019 23:20:00 15.3 C 83 % 12.43 C
282 19-08-2019 23:25:00 15.2 C 83 % 12.33 C
283 19-08-2019 23:30:00 15.1 C 84 % 12.42 C
284 19-08-2019 23:35:00 15 C 84 % 12.32 C
285 19-08-2019 23:40:00 14.9 C 85 % 12.4 C
286 19-08-2019 23:45:00 14.8 C 85 % 12.3 C
287 19-08-2019 23:50:00 14.7 C 85 % 12.21 C
288 19-08-2019 23:55:00 14.6 C 86 % 12.29 C
289 20-08-2019 00:00:00 14.4 C 86 % 12.09 C
290 20-08-2019 00:05:00 14.3 C 86 % 11.99 C
291 20-08-2019 00:10:00 14.2 C 87 % 12.07 C
292 20-08-2019 00:15:00 14.1 C 86 % 11.8 C
293 20-08-2019 00:20:00 14 C 86 % 11.7 C
294 20-08-2019 00:25:00 14 C 86 % 11.7 C
295 20-08-2019 00:30:00 13.9 C 87 % 11.77 C
296 20-08-2019 00:35:00 13.9 C 87 % 11.77 C
297 20-08-2019 00:40:00 13.8 C 87 % 11.68 C
298 20-08-2019 00:45:00 13.8 C 87 % 11.68 C
299 20-08-2019 00:50:00 13.7 C 87 % 11.58 C
300 20-08-2019 00:55:00 13.6 C 87 % 11.48 C
Sensor: Nr:Datum:Temp:Feuchte:Taupunkt:
Aussen-T/F 301 20-08-2019 01:00:00 13.6 C 88 % 11.65 C
302 20-08-2019 01:05:00 13.5 C 88 % 11.55 C
303 20-08-2019 01:10:00 13.4 C 88 % 11.45 C
304 20-08-2019 01:15:00 13.4 C 88 % 11.45 C
305 20-08-2019 01:20:00 13.3 C 88 % 11.36 C
306 20-08-2019 01:25:00 13.2 C 88 % 11.26 C
307 20-08-2019 01:30:00 13.2 C 88 % 11.26 C
308 20-08-2019 01:35:00 13.1 C 89 % 11.33 C
309 20-08-2019 01:40:00 13.1 C 89 % 11.33 C
310 20-08-2019 01:45:00 13 C 89 % 11.23 C
311 20-08-2019 01:50:00 12.9 C 89 % 11.13 C
312 20-08-2019 01:55:00 12.9 C 89 % 11.13 C
313 20-08-2019 02:00:00 12.9 C 90 % 11.3 C
314 20-08-2019 02:05:00 12.9 C 90 % 11.3 C
315 20-08-2019 02:10:00 12.9 C 89 % 11.13 C
316 20-08-2019 02:15:00 12.8 C 90 % 11.2 C
317 20-08-2019 02:20:00 12.8 C 90 % 11.2 C
318 20-08-2019 02:25:00 12.8 C 90 % 11.2 C
319 20-08-2019 02:30:00 12.8 C 90 % 11.2 C
320 20-08-2019 02:35:00 12.8 C 90 % 11.2 C
321 20-08-2019 02:40:00 12.8 C 90 % 11.2 C
322 20-08-2019 02:45:00 12.8 C 90 % 11.2 C
323 20-08-2019 02:50:00 12.8 C 90 % 11.2 C
324 20-08-2019 02:55:00 12.8 C 90 % 11.2 C
325 20-08-2019 03:00:00 12.7 C 90 % 11.1 C
Sensor: Nr:Datum:Temp:Feuchte:Taupunkt:
Aussen-T/F 326 20-08-2019 03:05:00 12.6 C 90 % 11 C
327 20-08-2019 03:10:00 12.6 C 90 % 11 C
328 20-08-2019 03:15:00 12.4 C 90 % 10.81 C
329 20-08-2019 03:20:00 12.3 C 90 % 10.71 C
330 20-08-2019 03:25:00 12.2 C 91 % 10.78 C
331 20-08-2019 03:30:00 12.2 C 91 % 10.78 C
332 20-08-2019 03:35:00 12.1 C 91 % 10.68 C
333 20-08-2019 03:40:00 12 C 91 % 10.58 C
334 20-08-2019 03:45:00 11.9 C 91 % 10.48 C
335 20-08-2019 03:50:00 11.8 C 91 % 10.38 C
336 20-08-2019 03:55:00 11.8 C 92 % 10.54 C
337 20-08-2019 04:00:00 11.7 C 92 % 10.44 C
338 20-08-2019 04:05:00 11.7 C 92 % 10.44 C
339 20-08-2019 04:10:00 11.6 C 92 % 10.35 C
340 20-08-2019 04:15:00 11.4 C 92 % 10.15 C
341 20-08-2019 04:20:00 11.4 C 92 % 10.15 C
342 20-08-2019 04:25:00 11.3 C 92 % 10.05 C
343 20-08-2019 04:30:00 11.3 C 93 % 10.21 C
344 20-08-2019 04:35:00 11.2 C 93 % 10.11 C
345 20-08-2019 04:40:00 11.2 C 93 % 10.11 C
346 20-08-2019 04:45:00 11.1 C 93 % 10.01 C
347 20-08-2019 04:50:00 11.1 C 93 % 10.01 C
348 20-08-2019 04:55:00 11.1 C 93 % 10.01 C
349 20-08-2019 05:00:00 11.1 C 93 % 10.01 C
350 20-08-2019 05:05:00 11.1 C 93 % 10.01 C
Sensor: Nr:Datum:Temp:Feuchte:Taupunkt:
Aussen-T/F 351 20-08-2019 05:10:00 11.1 C 93 % 10.01 C
352 20-08-2019 05:15:00 11 C 93 % 9.91 C
353 20-08-2019 05:20:00 10.9 C 94 % 9.97 C
354 20-08-2019 05:25:00 10.9 C 94 % 9.97 C
355 20-08-2019 05:30:00 10.9 C 94 % 9.97 C
356 20-08-2019 05:35:00 10.9 C 94 % 9.97 C
357 20-08-2019 05:40:00 10.8 C 94 % 9.87 C
358 20-08-2019 05:45:00 10.7 C 94 % 9.77 C
359 20-08-2019 05:50:00 10.7 C 94 % 9.77 C
360 20-08-2019 05:55:00 10.7 C 94 % 9.77 C
361 20-08-2019 06:00:00 10.6 C 94 % 9.68 C
362 20-08-2019 06:05:00 10.6 C 94 % 9.68 C
363 20-08-2019 06:10:00 10.5 C 94 % 9.58 C
364 20-08-2019 06:15:00 10.4 C 94 % 9.48 C
365 20-08-2019 06:20:00 10.4 C 94 % 9.48 C
366 20-08-2019 06:25:00 10.4 C 94 % 9.48 C
367 20-08-2019 06:30:00 10.4 C 95 % 9.63 C
368 20-08-2019 06:35:00 10.3 C 95 % 9.54 C
369 20-08-2019 06:40:00 10.4 C 95 % 9.63 C
370 20-08-2019 06:45:00 10.4 C 95 % 9.63 C
371 20-08-2019 06:50:00 10.3 C 95 % 9.54 C
372 20-08-2019 06:55:00 10.4 C 95 % 9.63 C
373 20-08-2019 07:00:00 10.4 C 95 % 9.63 C
374 20-08-2019 07:05:00 10.6 C 95 % 9.83 C
375 20-08-2019 07:10:00 10.7 C 95 % 9.93 C
Sensor: Nr:Datum:Temp:Feuchte:Taupunkt:
Aussen-T/F 376 20-08-2019 07:15:00 10.7 C 95 % 9.93 C
377 20-08-2019 07:20:00 10.7 C 95 % 9.93 C
378 20-08-2019 07:25:00 10.7 C 95 % 9.93 C
379 20-08-2019 07:30:00 10.7 C 95 % 9.93 C
380 20-08-2019 07:35:00 10.8 C 95 % 10.03 C
381 20-08-2019 07:40:00 10.9 C 96 % 10.29 C
382 20-08-2019 07:45:00 10.9 C 96 % 10.29 C
383 20-08-2019 07:50:00 11.1 C 96 % 10.49 C
384 20-08-2019 07:55:00 11.2 C 96 % 10.59 C
385 20-08-2019 08:00:00 11.2 C 96 % 10.59 C
386 20-08-2019 08:05:00 11.3 C 96 % 10.69 C
387 20-08-2019 08:10:00 11.3 C 96 % 10.69 C
388 20-08-2019 08:15:00 11.3 C 95 % 10.53 C
389 20-08-2019 08:20:00 11.3 C 95 % 10.53 C
390 20-08-2019 08:25:00 11.3 C 95 % 10.53 C
391 20-08-2019 08:30:00 11.4 C 95 % 10.63 C
392 20-08-2019 08:35:00 11.4 C 96 % 10.79 C
393 20-08-2019 08:40:00 11.6 C 96 % 10.98 C
394 20-08-2019 08:45:00 11.6 C 96 % 10.98 C
395 20-08-2019 08:50:00 11.7 C 96 % 11.08 C
396 20-08-2019 08:55:00 11.7 C 95 % 10.93 C
397 20-08-2019 09:00:00 11.8 C 95 % 11.03 C
398 20-08-2019 09:05:00 11.9 C 96 % 11.28 C
399 20-08-2019 09:10:00 12 C 96 % 11.38 C
400 20-08-2019 09:15:00 12.1 C 95 % 11.32 C
Sensor: Nr:Datum:Temp:Feuchte:Taupunkt:
Aussen-T/F 401 20-08-2019 09:20:00 12.2 C 96 % 11.58 C
402 20-08-2019 09:25:00 12.4 C 96 % 11.78 C
403 20-08-2019 09:30:00 12.7 C 96 % 12.08 C
404 20-08-2019 09:35:00 12.8 C 95 % 12.02 C
405 20-08-2019 09:40:00 13.1 C 95 % 12.32 C
406 20-08-2019 09:45:00 13.3 C 94 % 12.36 C
407 20-08-2019 09:50:00 13.4 C 94 % 12.45 C
408 20-08-2019 09:55:00 13.7 C 93 % 12.59 C
409 20-08-2019 10:00:00 13.8 C 92 % 12.52 C
410 20-08-2019 10:05:00 14.1 C 92 % 12.82 C
411 20-08-2019 10:10:00 14.4 C 91 % 12.95 C
412 20-08-2019 10:15:00 14.7 C 90 % 13.08 C
413 20-08-2019 10:20:00 14.9 C 88 % 12.93 C
414 20-08-2019 10:25:00 15.2 C 86 % 12.88 C
415 20-08-2019 10:30:00 15.4 C 86 % 13.07 C
416 20-08-2019 10:35:00 15.6 C 84 % 12.91 C
417 20-08-2019 10:40:00 15.9 C 83 % 13.02 C
418 20-08-2019 10:45:00 16.2 C 82 % 13.13 C
419 20-08-2019 10:50:00 16.4 C 80 % 12.94 C
420 20-08-2019 10:55:00 16.6 C 78 % 12.75 C
421 20-08-2019 11:00:00 16.7 C 77 % 12.65 C
422 20-08-2019 11:05:00 16.9 C 78 % 13.04 C
423 20-08-2019 11:10:00 17.1 C 76 % 12.84 C
424 20-08-2019 11:15:00 17.2 C 75 % 12.73 C
425 20-08-2019 11:20:00 17.3 C 74 % 12.62 C
Sensor: Nr:Datum:Temp:Feuchte:Taupunkt:
Aussen-T/F 426 20-08-2019 11:25:00 17.4 C 75 % 12.93 C
427 20-08-2019 11:30:00 17.5 C 72 % 12.4 C
428 20-08-2019 11:35:00 17.5 C 70 % 11.97 C
429 20-08-2019 11:40:00 17.6 C 72 % 12.5 C
430 20-08-2019 11:45:00 17.7 C 72 % 12.59 C
431 20-08-2019 11:50:00 17.8 C 72 % 12.69 C
432 20-08-2019 11:55:00 17.8 C 70 % 12.26 C
433 20-08-2019 12:00:00 17.9 C 70 % 12.35 C
434 20-08-2019 12:05:00 18 C 70 % 12.45 C
435 20-08-2019 12:10:00 18.2 C 69 % 12.42 C
436 20-08-2019 12:15:00 18.3 C 69 % 12.52 C
437 20-08-2019 12:20:00 18.5 C 69 % 12.71 C
438 20-08-2019 12:25:00 18.7 C 67 % 12.45 C
439 20-08-2019 12:30:00 18.8 C 65 % 12.09 C
440 20-08-2019 12:35:00 18.9 C 65 % 12.18 C
441 20-08-2019 12:40:00 18.9 C 65 % 12.18 C
442 20-08-2019 12:45:00 19.1 C 64 % 12.14 C
443 20-08-2019 12:50:00 19.1 C 64 % 12.14 C
444 20-08-2019 12:55:00 19.1 C 65 % 12.37 C
445 20-08-2019 13:00:00 19.2 C 63 % 11.99 C
446 20-08-2019 13:05:00 19.2 C 64 % 12.23 C
447 20-08-2019 13:10:00 19.3 C 63 % 12.09 C
448 20-08-2019 13:15:00 19.3 C 62 % 11.84 C
449 20-08-2019 13:20:00 19.3 C 63 % 12.09 C
450 20-08-2019 13:25:00 19.4 C 62 % 11.94 C
Sensor: Nr:Datum:Temp:Feuchte:Taupunkt:
Aussen-T/F 451 20-08-2019 13:30:00 19.6 C 63 % 12.37 C
452 20-08-2019 13:35:00 19.7 C 63 % 12.46 C
453 20-08-2019 13:40:00 19.7 C 61 % 11.97 C
454 20-08-2019 13:45:00 19.8 C 61 % 12.07 C
455 20-08-2019 13:50:00 19.9 C 62 % 12.41 C
456 20-08-2019 13:55:00 19.9 C 59 % 11.66 C
457 20-08-2019 14:00:00 20.1 C 58 % 11.58 C
458 20-08-2019 14:05:00 20.2 C 59 % 11.94 C
459 20-08-2019 14:10:00 20.2 C 60 % 12.19 C
460 20-08-2019 14:15:00 20.3 C 59 % 12.03 C
461 20-08-2019 14:20:00 20.4 C 59 % 12.12 C
462 20-08-2019 14:25:00 20.4 C 57 % 11.6 C
463 20-08-2019 14:30:00 20.4 C 56 % 11.33 C
464 20-08-2019 14:35:00 20.5 C 58 % 11.96 C
465 20-08-2019 14:40:00 20.6 C 56 % 11.52 C
466 20-08-2019 14:45:00 20.6 C 56 % 11.52 C
467 20-08-2019 14:50:00 20.7 C 55 % 11.34 C
468 20-08-2019 14:55:00 20.8 C 55 % 11.43 C
469 20-08-2019 15:00:00 20.8 C 55 % 11.43 C
470 20-08-2019 15:05:00 20.9 C 56 % 11.8 C
471 20-08-2019 15:10:00 20.9 C 57 % 12.07 C
472 20-08-2019 15:15:00 21 C 56 % 11.89 C
473 20-08-2019 15:20:00 21 C 56 % 11.89 C
474 20-08-2019 15:25:00 21.1 C 58 % 12.52 C
475 20-08-2019 15:30:00 21.1 C 57 % 12.25 C
Sensor: Nr:Datum:Temp:Feuchte:Taupunkt:
Aussen-T/F 476 20-08-2019 15:35:00 21.2 C 56 % 12.08 C
477 20-08-2019 15:40:00 21.2 C 56 % 12.08 C
478 20-08-2019 15:45:00 21.3 C 55 % 11.9 C
479 20-08-2019 15:50:00 21.4 C 55 % 11.99 C
480 20-08-2019 15:55:00 21.4 C 58 % 12.8 C
481 20-08-2019 16:00:00 21.4 C 56 % 12.27 C
482 20-08-2019 16:05:00 21.4 C 56 % 12.27 C
483 20-08-2019 16:10:00 21.4 C 55 % 11.99 C
484 20-08-2019 16:15:00 21.4 C 55 % 11.99 C
485 20-08-2019 16:20:00 21.4 C 55 % 11.99 C
486 20-08-2019 16:25:00 21.4 C 57 % 12.53 C
487 20-08-2019 16:30:00 21.6 C 58 % 12.99 C
488 20-08-2019 16:35:00 21.6 C 60 % 13.51 C
489 20-08-2019 16:40:00 21.6 C 61 % 13.76 C
490 20-08-2019 16:45:00 21.4 C 61 % 13.57 C
491 20-08-2019 16:50:00 21.3 C 65 % 14.46 C
492 20-08-2019 16:55:00 21.1 C 67 % 14.74 C
493 20-08-2019 17:00:00 20.9 C 65 % 14.08 C
494 20-08-2019 17:05:00 20.7 C 62 % 13.16 C
495 20-08-2019 17:10:00 20.7 C 60 % 12.66 C
496 20-08-2019 17:15:00 20.8 C 58 % 12.24 C
497 20-08-2019 17:20:00 20.8 C 59 % 12.5 C
498 20-08-2019 17:25:00 20.8 C 58 % 12.24 C
499 20-08-2019 17:30:00 20.7 C 61 % 12.91 C
500 20-08-2019 17:35:00 20.7 C 69 % 14.81 C
Sensor: Nr:Datum:Temp:Feuchte:Taupunkt:
Aussen-T/F 501 20-08-2019 17:40:00 20.7 C 69 % 14.81 C
502 20-08-2019 17:45:00 20.5 C 69 % 14.62 C
503 20-08-2019 17:50:00 20.4 C 71 % 14.97 C
504 20-08-2019 17:55:00 20.5 C 72 % 15.28 C
505 20-08-2019 18:00:00 20.6 C 73 % 15.59 C
506 20-08-2019 18:05:00 20.6 C 73 % 15.59 C
507 20-08-2019 18:10:00 20.7 C 75 % 16.11 C
508 20-08-2019 18:15:00 20.7 C 74 % 15.9 C
509 20-08-2019 18:20:00 20.7 C 75 % 16.11 C
510 20-08-2019 18:25:00 20.5 C 71 % 15.06 C
511 20-08-2019 18:30:00 20.4 C 74 % 15.61 C
512 20-08-2019 18:35:00 20.3 C 74 % 15.51 C
513 20-08-2019 18:40:00 20.2 C 74 % 15.42 C
514 20-08-2019 18:45:00 20.1 C 74 % 15.32 C
515 20-08-2019 18:50:00 19.9 C 75 % 15.34 C
516 20-08-2019 18:55:00 19.8 C 75 % 15.24 C
517 20-08-2019 19:00:00 19.7 C 75 % 15.15 C
518 20-08-2019 19:05:00 19.5 C 74 % 14.74 C
519 20-08-2019 19:10:00 19.3 C 74 % 14.55 C
520 20-08-2019 19:15:00 19.2 C 75 % 14.66 C
521 20-08-2019 19:20:00 19 C 75 % 14.47 C
522 20-08-2019 19:25:00 18.9 C 75 % 14.37 C
523 20-08-2019 19:30:00 18.8 C 75 % 14.28 C
524 20-08-2019 19:35:00 18.7 C 75 % 14.18 C
525 20-08-2019 19:40:00 18.6 C 75 % 14.08 C
Sensor: Nr:Datum:Temp:Feuchte:Taupunkt:
Aussen-T/F 526 20-08-2019 19:45:00 18.4 C 75 % 13.89 C
527 20-08-2019 19:50:00 18.3 C 75 % 13.79 C
528 20-08-2019 19:55:00 18.2 C 75 % 13.7 C
529 20-08-2019 20:00:00 18.1 C 75 % 13.6 C
530 20-08-2019 20:05:00 17.9 C 75 % 13.41 C
531 20-08-2019 20:10:00 17.8 C 75 % 13.31 C
532 20-08-2019 20:15:00 17.7 C 74 % 13.01 C
533 20-08-2019 20:20:00 17.6 C 74 % 12.91 C
534 20-08-2019 20:25:00 17.6 C 74 % 12.91 C
535 20-08-2019 20:30:00 17.5 C 76 % 13.23 C
536 20-08-2019 20:35:00 17.4 C 76 % 13.13 C
537 20-08-2019 20:40:00 17.4 C 77 % 13.33 C
538 20-08-2019 20:45:00 17.4 C 77 % 13.33 C
539 20-08-2019 20:50:00 17.3 C 78 % 13.43 C
540 20-08-2019 20:55:00 17.3 C 78 % 13.43 C
541 20-08-2019 21:00:00 17.3 C 79 % 13.63 C
542 20-08-2019 21:05:00 17.2 C 79 % 13.53 C
543 20-08-2019 21:10:00 17.1 C 79 % 13.43 C
544 20-08-2019 21:15:00 17.1 C 80 % 13.62 C
545 20-08-2019 21:20:00 16.9 C 79 % 13.24 C
546 20-08-2019 21:25:00 16.8 C 80 % 13.33 C
547 20-08-2019 21:30:00 16.8 C 80 % 13.33 C
548 20-08-2019 21:35:00 16.7 C 80 % 13.23 C
549 20-08-2019 21:40:00 16.5 C 80 % 13.04 C
550 20-08-2019 21:45:00 16.3 C 80 % 12.85 C
Sensor: Nr:Datum:Temp:Feuchte:Taupunkt:
Aussen-T/F 551 20-08-2019 21:50:00 16.3 C 81 % 13.04 C
552 20-08-2019 21:55:00 16.2 C 82 % 13.13 C
553 20-08-2019 22:00:00 16.1 C 83 % 13.21 C
554 20-08-2019 22:05:00 16.1 C 83 % 13.21 C
555 20-08-2019 22:10:00 16.1 C 83 % 13.21 C
556 20-08-2019 22:15:00 16 C 84 % 13.3 C
557 20-08-2019 22:20:00 15.9 C 84 % 13.2 C
558 20-08-2019 22:25:00 15.9 C 84 % 13.2 C
559 20-08-2019 22:30:00 15.9 C 84 % 13.2 C
560 20-08-2019 22:35:00 15.9 C 84 % 13.2 C
561 20-08-2019 22:40:00 15.9 C 84 % 13.2 C
562 20-08-2019 22:45:00 15.8 C 84 % 13.1 C
563 20-08-2019 22:50:00 15.8 C 84 % 13.1 C
564 20-08-2019 22:55:00 15.7 C 84 % 13.01 C
565 20-08-2019 23:00:00 15.7 C 84 % 13.01 C
566 20-08-2019 23:05:00 15.6 C 85 % 13.09 C
567 20-08-2019 23:10:00 15.5 C 85 % 12.99 C
568 20-08-2019 23:15:00 15.4 C 85 % 12.89 C
569 20-08-2019 23:20:00 15.3 C 85 % 12.79 C
570 20-08-2019 23:25:00 15.2 C 85 % 12.7 C
571 20-08-2019 23:30:00 15.1 C 85 % 12.6 C
572 20-08-2019 23:35:00 15.1 C 85 % 12.6 C
573 20-08-2019 23:40:00 15 C 85 % 12.5 C
574 20-08-2019 23:45:00 14.8 C 85 % 12.3 C
575 20-08-2019 23:50:00 14.7 C 85 % 12.21 C
Sensor: Nr:Datum:Temp:Feuchte:Taupunkt:
Aussen-T/F 576 20-08-2019 23:55:00 14.7 C 86 % 12.38 C

Legende:
   Min
   Max


Maximal/Minimal-Werte vom 19.08.2019 - 20.08.2019

Sensor Min Max Avg
Temp
(Aussen-T/F)
10.3 °C
20-08-2019  06:35:00
24.9 °C
19-08-2019  16:50:00
17.08 °C
Feuchte
(Aussen-T/F)
44 %
19-08-2019  17:20:00
98 %
19-08-2019  07:40:00
78.95 %
Taupunkt
(Aussen-T/F)
9.48 C
20-08-2019  06:15:00
16.11 C
20-08-2019  18:10:00
12.97 C

Die Daten stammen von einer Davis Vantage Pro 2 Wetter-Station und werden unter Linux mit der Software wview2wettercgi und aufbereitet. Alle Angaben erfolgen ohne Gewähr für ihre Vollständigkeit oder Richtigkeit.
Kontakt: Rainer Krienke krienke@uni-koblenz.de . Meine Webseiten an der Uni Koblenz oder privat.
Version: $Revision: 0.78 $